createdAt,value
2024-03-08T00:01:46.649Z,38.72
2024-03-08T00:04:48.391Z,36.65
2024-03-08T00:07:49.993Z,38.75
2024-03-08T00:10:51.778Z,37.40
2024-03-08T00:13:54.276Z,40.60
2024-03-08T00:16:55.869Z,37.50
2024-03-08T00:19:58.414Z,41.88
2024-03-08T00:23:00.185Z,39.08
2024-03-08T00:26:01.831Z,35.90
2024-03-08T00:29:04.362Z,42.72
2024-03-08T00:32:06.178Z,44.08
2024-03-08T00:35:09.229Z,41.47
2024-03-08T00:38:10.985Z,42.00
2024-03-08T00:41:12.978Z,41.38
2024-03-08T00:44:14.717Z,42.53
2024-03-08T00:47:16.423Z,40.83
2024-03-08T00:50:19.074Z,42.63
2024-03-08T00:53:20.726Z,41.78
2024-03-08T00:56:22.315Z,38.95
2024-03-08T00:59:24.104Z,41.60
2024-03-08T01:02:26.282Z,45.25
2024-03-08T01:05:28.004Z,43.15
2024-03-08T01:08:29.719Z,42.58
2024-03-08T01:11:31.467Z,47.92
2024-03-08T01:14:34.041Z,43.33
2024-03-08T01:17:36.248Z,40.85
2024-03-08T01:20:38.015Z,41.10
2024-03-08T01:23:39.781Z,46.65
2024-03-08T01:26:41.525Z,40.50
2024-03-08T01:29:43.435Z,45.13
2024-03-08T01:32:45.257Z,42.35
2024-03-08T01:35:47.006Z,49.95
2024-03-08T01:38:48.829Z,51.08
2024-03-08T01:41:50.646Z,42.40
2024-03-08T01:44:52.844Z,37.03
2024-03-08T01:47:54.504Z,39.08
2024-03-08T01:51:00.505Z,47.03
2024-03-08T01:54:04.436Z,41.90
2024-03-08T01:57:06.874Z,41.63
2024-03-08T02:00:11.343Z,42.95
2024-03-08T02:03:13.158Z,45.33
2024-03-08T02:06:18.207Z,50.03
2024-03-08T02:09:20.157Z,47.30
2024-03-08T02:12:22.058Z,45.20
2024-03-08T02:15:23.863Z,47.40
2024-03-08T02:18:25.953Z,43.63
2024-03-08T02:21:27.885Z,45.45
2024-03-08T02:24:29.539Z,46.53
2024-03-08T02:27:31.400Z,50.78
2024-03-08T02:30:32.971Z,46.35
2024-03-08T02:33:34.909Z,48.65
2024-03-08T02:36:36.577Z,47.47
2024-03-08T02:39:38.250Z,45.72
2024-03-08T02:42:39.897Z,46.22
2024-03-08T02:45:43.090Z,44.85
2024-03-08T02:48:44.879Z,47.13
2024-03-08T02:51:47.238Z,50.63
2024-03-08T02:54:49.496Z,48.92
2024-03-08T02:57:51.140Z,47.88
2024-03-08T03:00:52.808Z,51.03
2024-03-08T03:03:54.518Z,47.00
2024-03-08T03:06:56.266Z,46.45
2024-03-08T03:09:57.876Z,47.13
2024-03-08T03:12:59.461Z,51.08
2024-03-08T03:16:01.263Z,52.80
2024-03-08T03:19:06.367Z,51.00
2024-03-08T03:22:10.641Z,48.60
2024-03-08T03:25:13.714Z,49.25
2024-03-08T03:28:19.549Z,48.58
2024-03-08T03:31:24.858Z,51.60
2024-03-08T03:34:26.483Z,54.05
2024-03-08T03:37:28.181Z,51.67
2024-03-08T03:40:30.239Z,53.35
2024-03-08T03:43:32.410Z,48.20
2024-03-08T03:46:34.897Z,51.10
2024-03-08T03:49:36.520Z,54.67
2024-03-08T03:52:38.147Z,52.50
2024-03-08T03:55:41.313Z,47.70
2024-03-08T03:58:43.624Z,49.17
2024-03-08T04:01:45.545Z,50.08
2024-03-08T04:04:48.679Z,50.80
2024-03-08T04:07:50.262Z,51.80
2024-03-08T04:10:52.088Z,54.30
2024-03-08T04:13:54.991Z,52.65
2024-03-08T04:16:56.617Z,52.95
2024-03-08T04:19:58.327Z,51.40
2024-03-08T04:23:00.370Z,54.08
2024-03-08T04:26:02.721Z,48.45
2024-03-08T04:29:04.418Z,53.60
2024-03-08T04:32:07.673Z,51.80
2024-03-08T04:35:09.599Z,51.70
2024-03-08T04:38:11.179Z,52.47
2024-03-08T04:41:12.871Z,50.30
2024-03-08T04:44:14.462Z,54.47
2024-03-08T04:47:17.135Z,54.92
2024-03-08T04:50:19.213Z,52.22
2024-03-08T04:53:21.196Z,61.35
2024-03-08T04:56:22.797Z,57.38
2024-03-08T04:59:25.014Z,48.90
2024-03-08T05:02:26.800Z,52.88
2024-03-08T05:05:30.020Z,53.67
2024-03-08T05:08:31.668Z,56.40
2024-03-08T05:11:33.326Z,52.97
2024-03-08T05:14:35.969Z,52.08
2024-03-08T05:17:39.055Z,62.17
2024-03-08T05:20:42.288Z,51.28
2024-03-08T05:23:44.016Z,58.45
2024-03-08T05:26:47.146Z,54.17
2024-03-08T05:29:48.922Z,59.80
2024-03-08T05:32:50.645Z,60.97
2024-03-08T05:35:53.027Z,52.08
2024-03-08T05:38:55.558Z,61.72
2024-03-08T05:41:57.393Z,54.60
2024-03-08T05:44:59.889Z,66.13
2024-03-08T05:48:02.375Z,64.57
2024-03-08T05:51:04.574Z,56.47
2024-03-08T05:54:16.386Z,58.97
2024-03-08T05:57:20.098Z,58.38
2024-03-08T06:00:23.328Z,59.30
2024-03-08T06:03:25.945Z,59.72
2024-03-08T06:06:27.602Z,59.90
2024-03-08T06:09:29.193Z,59.83
2024-03-08T06:12:34.412Z,60.20
2024-03-08T06:15:36.126Z,61.70
2024-03-08T06:18:38.348Z,60.72
2024-03-08T06:21:40.545Z,64.13
2024-03-08T06:24:42.118Z,60.85
2024-03-08T06:27:44.498Z,61.13
2024-03-08T06:30:48.623Z,61.75
2024-03-08T06:33:51.062Z,62.30
2024-03-08T06:36:53.578Z,60.67
2024-03-08T06:39:56.269Z,64.85
2024-03-08T06:42:57.898Z,60.30
2024-03-08T06:45:59.477Z,61.42
2024-03-08T06:49:01.118Z,60.22
2024-03-08T06:52:02.814Z,65.25
2024-03-08T06:55:06.278Z,61.78
2024-03-08T06:58:08.013Z,65.32
2024-03-08T07:01:14.861Z,65.95
2024-03-08T07:04:16.622Z,65.43
2024-03-08T07:07:21.321Z,60.25
2024-03-08T07:10:26.070Z,63.55
2024-03-08T07:13:30.662Z,62.50
2024-03-08T07:16:32.706Z,63.80
2024-03-08T07:19:34.292Z,63.10
2024-03-08T07:22:37.985Z,66.40
2024-03-08T07:25:40.273Z,63.40
2024-03-08T07:28:42.067Z,63.53
2024-03-08T07:31:57.125Z,62.35
2024-03-08T07:34:59.456Z,60.95
2024-03-08T07:38:01.191Z,63.03
2024-03-08T07:41:05.659Z,58.70
2024-03-08T07:44:11.343Z,66.43
2024-03-08T07:47:13.166Z,63.00
2024-03-08T07:50:17.586Z,65.10
2024-03-08T07:53:19.322Z,63.90
2024-03-08T07:56:23.064Z,62.60
2024-03-08T07:59:24.730Z,62.70
2024-03-08T08:02:26.384Z,62.10
2024-03-08T08:05:28.258Z,63.70
2024-03-08T08:08:30.787Z,63.88
2024-03-08T08:11:33.570Z,64.35
2024-03-08T08:14:35.168Z,63.42
2024-03-08T08:17:36.833Z,60.85
2024-03-08T08:20:38.774Z,60.22
2024-03-08T08:23:40.904Z,68.50
2024-03-08T08:26:42.539Z,60.15
2024-03-08T08:29:44.490Z,59.88
2024-03-08T08:32:48.157Z,62.28
2024-03-08T08:35:52.810Z,58.17
2024-03-08T08:38:55.320Z,58.42
2024-03-08T08:41:57.433Z,54.40
2024-03-08T08:45:03.084Z,58.08
2024-03-08T08:48:11.397Z,60.15
2024-03-08T08:51:13.427Z,55.42
2024-03-08T08:54:18.007Z,55.75
2024-03-08T08:57:20.659Z,56.88
2024-03-08T09:00:24.925Z,61.10
2024-03-08T09:03:28.328Z,56.67
2024-03-08T09:06:31.450Z,53.40
2024-03-08T09:09:33.897Z,53.22
2024-03-08T09:12:35.616Z,56.17
2024-03-08T09:15:37.310Z,53.53
2024-03-08T09:18:39.724Z,54.15
2024-03-08T09:21:41.589Z,49.47
2024-03-08T09:24:46.794Z,50.40
2024-03-08T09:27:48.935Z,51.50
2024-03-08T09:30:57.179Z,50.47
2024-03-08T09:34:01.902Z,53.30
2024-03-08T09:37:05.352Z,57.20
2024-03-08T09:40:10.405Z,50.90
2024-03-08T09:43:15.081Z,48.50
2024-03-08T09:46:17.056Z,51.45
2024-03-08T09:49:18.977Z,45.63
2024-03-08T09:52:21.054Z,48.28
2024-03-08T09:55:23.910Z,51.95
2024-03-08T09:58:28.822Z,45.75
2024-03-08T10:01:30.584Z,49.13
2024-03-08T10:04:33.046Z,46.97
2024-03-08T10:07:35.580Z,44.92
2024-03-08T10:10:40.550Z,46.78
2024-03-08T10:13:42.606Z,44.10
2024-03-08T10:16:47.973Z,44.47
2024-03-08T10:19:54.040Z,40.55
2024-03-08T10:23:03.301Z,42.53
2024-03-08T10:26:16.836Z,37.42
2024-03-08T10:29:19.856Z,45.53
2024-03-08T10:32:21.827Z,44.65
2024-03-08T10:35:25.025Z,43.25
2024-03-08T10:38:28.549Z,41.75
2024-03-08T10:41:33.713Z,40.40
2024-03-08T10:44:52.985Z,48.05
2024-03-08T10:48:18.211Z,39.63
2024-03-08T10:51:20.548Z,39.10
2024-03-08T10:54:23.589Z,41.35
2024-03-08T10:57:28.489Z,38.30
2024-03-08T11:00:30.088Z,40.78
2024-03-08T11:03:47.629Z,42.92
2024-03-08T11:06:53.947Z,44.78
2024-03-08T11:09:57.598Z,49.13
2024-03-08T11:12:59.533Z,43.63
2024-03-08T11:16:01.532Z,45.33
2024-03-08T11:19:12.602Z,49.55
2024-03-08T11:22:25.840Z,49.53
2024-03-08T11:25:46.930Z,44.20
2024-03-08T11:28:48.959Z,45.08
2024-03-08T11:31:50.635Z,50.78
2024-03-08T11:34:52.591Z,45.90
2024-03-08T11:37:54.912Z,44.97
2024-03-08T11:40:58.754Z,44.45
2024-03-08T11:44:09.076Z,48.05
2024-03-08T11:47:11.877Z,49.45
2024-03-08T11:50:14.370Z,45.90
2024-03-08T11:53:15.995Z,44.42
2024-03-08T11:56:18.007Z,47.13
2024-03-08T11:59:19.635Z,44.67
2024-03-08T12:02:21.803Z,47.30
2024-03-08T12:05:23.458Z,47.65
2024-03-08T12:08:25.401Z,44.47
2024-03-08T12:11:29.846Z,43.60
2024-03-08T12:14:37.692Z,45.67
2024-03-08T12:17:40.376Z,41.35
2024-03-08T12:20:44.970Z,37.58
2024-03-08T12:23:46.639Z,43.42
2024-03-08T12:26:49.348Z,50.33
2024-03-08T12:29:52.286Z,38.78
2024-03-08T12:33:00.059Z,43.03
2024-03-08T12:36:01.682Z,38.17
2024-03-08T12:39:04.935Z,36.15
2024-03-08T12:42:07.337Z,33.15
2024-03-08T12:45:11.215Z,32.13
2024-03-08T12:48:18.791Z,28.35
2024-03-08T12:51:21.914Z,30.50
2024-03-08T12:54:24.912Z,26.80
2024-03-08T12:57:29.254Z,29.55
2024-03-08T13:00:30.879Z,28.88
2024-03-08T13:03:32.747Z,30.98
2024-03-08T13:06:34.779Z,25.92
2024-03-08T13:09:38.439Z,21.27
2024-03-08T13:12:40.297Z,29.45
2024-03-08T13:15:42.427Z,23.20
2024-03-08T13:18:44.866Z,21.30
2024-03-08T13:21:50.347Z,18.30
2024-03-08T13:24:54.423Z,17.75
2024-03-08T13:27:58.373Z,17.65
2024-03-08T13:31:04.415Z,17.33
2024-03-08T13:34:06.627Z,16.83
2024-03-08T13:37:10.798Z,15.35
2024-03-08T13:40:14.160Z,19.92
2024-03-08T13:43:15.841Z,19.23
2024-03-08T13:46:18.301Z,16.05
2024-03-08T13:49:20.050Z,17.30
2024-03-08T13:52:26.230Z,16.50
2024-03-08T13:55:28.057Z,19.88
2024-03-08T13:58:30.063Z,18.48
2024-03-08T14:01:31.888Z,15.48
2024-03-08T14:04:33.682Z,14.80
2024-03-08T14:07:42.702Z,18.15
2024-03-08T14:10:47.946Z,19.02
2024-03-08T14:13:49.808Z,16.20
2024-03-08T14:16:56.857Z,19.73
2024-03-08T14:19:58.542Z,17.40
2024-03-08T14:23:00.354Z,17.80
2024-03-08T14:26:02.280Z,17.00
2024-03-08T14:29:06.046Z,15.82
2024-03-08T14:32:07.897Z,14.65
2024-03-08T14:35:12.151Z,18.48
2024-03-08T14:38:14.156Z,18.65
2024-03-08T14:41:16.438Z,14.93
2024-03-08T14:44:20.244Z,16.05
2024-03-08T14:47:23.206Z,21.50
2024-03-08T14:50:26.341Z,18.88
2024-03-08T14:53:28.601Z,18.70
2024-03-08T14:56:30.296Z,18.98
2024-03-08T14:59:31.912Z,16.65
2024-03-08T15:02:37.365Z,18.08
2024-03-08T15:05:43.210Z,18.35
2024-03-08T15:08:44.908Z,19.42
2024-03-08T15:11:52.759Z,20.30
2024-03-08T15:14:56.712Z,19.23
2024-03-08T15:17:59.699Z,20.27
2024-03-08T15:21:07.639Z,20.67
2024-03-08T15:24:16.128Z,20.85
2024-03-08T15:27:17.764Z,27.65
2024-03-08T15:30:23.492Z,18.50
2024-03-08T15:33:32.323Z,20.55
2024-03-08T15:36:34.648Z,22.95
2024-03-08T15:39:39.531Z,19.50
2024-03-08T15:42:41.664Z,19.40
2024-03-08T15:45:44.006Z,20.00
2024-03-08T15:48:45.913Z,20.83
2024-03-08T15:51:47.764Z,20.63
2024-03-08T15:54:49.393Z,22.88
2024-03-08T15:57:52.858Z,22.83
2024-03-08T16:00:54.607Z,23.17
2024-03-08T16:03:59.494Z,23.92
2024-03-08T16:07:01.770Z,26.00
2024-03-08T16:10:03.759Z,24.75
2024-03-08T16:13:07.179Z,28.02
2024-03-08T16:16:09.894Z,22.63
2024-03-08T16:19:14.998Z,24.92
2024-03-08T16:22:16.810Z,27.90
2024-03-08T16:25:19.946Z,23.88
2024-03-08T16:28:29.059Z,25.15
2024-03-08T16:31:31.902Z,23.70
2024-03-08T16:34:35.807Z,23.40
2024-03-08T16:37:41.582Z,28.48
2024-03-08T16:40:45.706Z,26.17
2024-03-08T16:43:48.238Z,23.38
2024-03-08T16:46:51.061Z,28.35
2024-03-08T16:49:52.775Z,31.90
2024-03-08T16:52:57.614Z,26.92
2024-03-08T16:56:01.640Z,27.42
2024-03-08T16:59:05.415Z,26.65
2024-03-08T17:02:12.371Z,25.75
2024-03-08T17:05:17.314Z,32.63
2024-03-08T17:08:19.726Z,30.20
2024-03-08T17:11:22.353Z,35.10
2024-03-08T17:14:24.728Z,24.98
2024-03-08T17:17:27.496Z,24.92
2024-03-08T17:20:30.217Z,32.30
2024-03-08T17:23:37.448Z,27.23
2024-03-08T17:26:41.046Z,30.05
2024-03-08T17:29:43.190Z,29.98
2024-03-08T17:32:45.536Z,26.70
2024-03-08T17:35:48.287Z,24.85
2024-03-08T17:38:52.548Z,25.10
2024-03-08T17:41:54.858Z,27.10
2024-03-08T17:45:01.793Z,27.27
2024-03-08T17:48:14.591Z,27.98
2024-03-08T17:51:17.193Z,26.23
2024-03-08T17:54:26.049Z,27.58
2024-03-08T17:57:28.618Z,24.75
2024-03-08T18:00:33.467Z,22.85
2024-03-08T18:03:37.958Z,26.10
2024-03-08T18:06:41.912Z,23.13
2024-03-08T18:09:44.668Z,26.13
2024-03-08T18:12:49.642Z,26.70
2024-03-08T18:15:54.985Z,24.25
2024-03-08T18:18:56.655Z,27.67
2024-03-08T18:21:58.335Z,30.88
2024-03-08T18:25:00.424Z,30.67
2024-03-08T18:28:27.756Z,27.95
2024-03-08T18:31:29.563Z,28.48
2024-03-08T18:34:32.217Z,32.05
2024-03-08T18:37:33.932Z,27.83
2024-03-08T18:40:38.415Z,28.13
2024-03-08T18:43:40.312Z,28.08
2024-03-08T18:46:44.469Z,29.42
2024-03-08T18:49:48.532Z,31.52
2024-03-08T18:52:50.364Z,25.70
2024-03-08T18:55:53.067Z,28.85
2024-03-08T18:58:59.706Z,31.92
2024-03-08T19:02:03.715Z,27.98
2024-03-08T19:05:06.105Z,27.30
2024-03-08T19:08:09.524Z,28.00
2024-03-08T19:11:12.042Z,33.83
2024-03-08T19:14:14.056Z,32.53
2024-03-08T19:17:15.672Z,33.58
2024-03-08T19:20:22.944Z,39.63
2024-03-08T19:23:24.601Z,33.63
2024-03-08T19:26:26.852Z,32.72
2024-03-08T19:29:30.287Z,35.05
2024-03-08T19:32:32.507Z,38.15
2024-03-08T19:35:37.442Z,36.38
2024-03-08T19:38:39.984Z,40.08
2024-03-08T19:41:42.032Z,41.83
2024-03-08T19:44:48.905Z,39.53
2024-03-08T19:47:51.207Z,42.00
2024-03-08T19:50:52.925Z,37.92
2024-03-08T19:53:55.333Z,45.13
2024-03-08T19:56:58.318Z,42.28
2024-03-08T19:59:59.927Z,42.13
2024-03-08T20:03:03.017Z,44.15
2024-03-08T20:06:07.180Z,45.58
2024-03-08T20:09:09.014Z,46.67
2024-03-08T20:12:10.803Z,45.80
2024-03-08T20:15:14.994Z,42.90
2024-03-08T20:18:17.304Z,44.10
2024-03-08T20:21:19.261Z,50.53
2024-03-08T20:24:22.351Z,47.33
2024-03-08T20:27:28.625Z,48.33
2024-03-08T20:30:31.097Z,47.70
2024-03-08T20:33:33.358Z,51.20
2024-03-08T20:36:38.752Z,48.90
2024-03-08T20:39:41.040Z,45.28
2024-03-08T20:42:42.916Z,51.80
2024-03-08T20:45:45.727Z,56.67
2024-03-08T20:48:50.678Z,47.30
2024-03-08T20:51:53.081Z,47.47
2024-03-08T20:54:54.892Z,51.45
2024-03-08T20:57:58.467Z,49.13
2024-03-08T21:01:00.241Z,50.38
2024-03-08T21:04:01.920Z,55.95
2024-03-08T21:07:07.236Z,50.55
2024-03-08T21:10:11.501Z,55.88
2024-03-08T21:13:13.321Z,56.65
2024-03-08T21:16:15.461Z,53.90
2024-03-08T21:19:17.154Z,51.60
2024-03-08T21:22:18.789Z,53.97
2024-03-08T21:25:22.074Z,53.83
2024-03-08T21:28:30.742Z,57.08
2024-03-08T21:31:33.042Z,56.20
2024-03-08T21:34:35.099Z,54.03
2024-03-08T21:37:37.544Z,59.15
2024-03-08T21:40:53.486Z,60.42
2024-03-08T21:44:03.712Z,56.38
2024-03-08T21:47:05.710Z,62.78
2024-03-08T21:50:10.350Z,60.80
2024-03-08T21:53:20.548Z,58.97
2024-03-08T21:56:28.830Z,53.38
2024-03-08T21:59:30.446Z,58.80
2024-03-08T22:02:32.116Z,59.30
2024-03-08T22:05:35.124Z,61.97
2024-03-08T22:08:38.864Z,57.83
2024-03-08T22:11:40.550Z,56.47
2024-03-08T22:14:44.223Z,63.92
2024-03-08T22:17:46.664Z,60.80
2024-03-08T22:20:48.297Z,62.33
2024-03-08T22:23:49.993Z,62.25
2024-03-08T22:26:51.580Z,61.95
2024-03-08T22:29:53.591Z,70.72
2024-03-08T22:32:58.303Z,59.60
2024-03-08T22:36:00.763Z,56.42
2024-03-08T22:39:02.806Z,62.47
2024-03-08T22:42:07.091Z,59.22
2024-03-08T22:45:13.912Z,66.93
2024-03-08T22:48:15.733Z,57.05
2024-03-08T22:51:24.026Z,68.63
2024-03-08T22:54:26.122Z,61.40
2024-03-08T22:57:28.485Z,59.55
2024-03-08T23:00:45.376Z,63.63
2024-03-08T23:03:47.778Z,63.42
2024-03-08T23:06:49.633Z,59.88
2024-03-08T23:09:52.467Z,64.63
2024-03-08T23:12:54.362Z,59.65
2024-03-08T23:15:56.019Z,65.88
2024-03-08T23:18:58.736Z,59.78
2024-03-08T23:22:01.785Z,58.53
2024-03-08T23:25:10.559Z,63.65
2024-03-08T23:28:13.664Z,62.90
2024-03-08T23:31:16.050Z,60.17
2024-03-08T23:34:17.966Z,59.83
2024-03-08T23:37:19.840Z,68.05
2024-03-08T23:40:22.879Z,69.40
2024-03-08T23:43:26.363Z,67.47
2024-03-08T23:46:28.068Z,55.13
2024-03-08T23:49:29.675Z,61.72
2024-03-08T23:52:35.899Z,62.03
2024-03-08T23:55:39.144Z,71.45
2024-03-08T23:58:42.513Z,62.63
